sensor_id;sensor_type;location;lat;lon;timestamp;pressure;altitude;pressure_sealevel;temperature;humidity
30021;BME280;16861;52.294;7.760;2023-02-08T03:40:40;102061.75;;;2.78;57.27
30021;BME280;16861;52.294;7.760;2023-02-08T03:43:22;102059.09;;;2.74;56.58
30021;BME280;16861;52.294;7.760;2023-02-08T03:45:56;102066.09;;;2.77;56.04
30021;BME280;16861;52.294;7.760;2023-02-08T03:48:27;102060.06;;;2.80;57.51
30021;BME280;16861;52.294;7.760;2023-02-08T03:50:55;102057.44;;;2.78;56.86
30021;BME280;16861;52.294;7.760;2023-02-08T03:53:24;102066.09;;;2.77;57.28
30021;BME280;16861;52.294;7.760;2023-02-08T03:55:57;102064.34;;;2.76;56.66
30021;BME280;16861;52.294;7.760;2023-02-08T03:58:31;102062.63;;;2.77;56.21
30021;BME280;16861;52.294;7.760;2023-02-08T04:01:07;102062.63;;;2.77;56.52
30021;BME280;16861;52.294;7.760;2023-02-08T04:03:38;102064.38;;;2.79;57.23
30021;BME280;16861;52.294;7.760;2023-02-08T04:06:05;102066.09;;;2.79;57.38
30021;BME280;16861;52.294;7.760;2023-02-08T04:08:32;102067.88;;;2.80;57.22
30021;BME280;16861;52.294;7.760;2023-02-08T04:10:59;102066.97;;;2.79;57.18
30021;BME280;16861;52.294;7.760;2023-02-08T04:13:25;102066.09;;;2.79;57.19
30021;BME280;16861;52.294;7.760;2023-02-08T04:15:52;102066.97;;;2.78;57.24
30021;BME280;16861;52.294;7.760;2023-02-08T04:18:19;102065.25;;;2.78;57.40
30021;BME280;16861;52.294;7.760;2023-02-08T04:20:45;102063.50;;;2.77;57.32
30021;BME280;16861;52.294;7.760;2023-02-08T04:23:12;102065.22;;;2.77;57.25
30021;BME280;16861;52.294;7.760;2023-02-08T04:25:38;102070.41;;;2.77;57.22
30021;BME280;16861;52.294;7.760;2023-02-08T04:28:05;102071.31;;;2.77;57.21
30021;BME280;16861;52.294;7.760;2023-02-08T04:30:31;102073.91;;;2.77;56.99
30021;BME280;16861;52.294;7.760;2023-02-08T04:32:58;102074.72;;;2.76;56.77
30021;BME280;16861;52.294;7.760;2023-02-08T04:35:25;102072.13;;;2.76;57.17
30021;BME280;16861;52.294;7.760;2023-02-08T04:37:52;102068.66;;;2.74;57.23
30021;BME280;16861;52.294;7.760;2023-02-08T04:40:18;102069.50;;;2.74;56.80
30021;BME280;16861;52.294;7.760;2023-02-08T04:42:45;102072.97;;;2.73;56.65
30021;BME280;16861;52.294;7.760;2023-02-08T04:45:12;102082.50;;;2.71;56.34
30021;BME280;16861;52.294;7.760;2023-02-08T04:47:38;102072.09;;;2.71;56.42
30021;BME280;16861;52.294;7.760;2023-02-08T04:50:05;102088.53;;;2.70;56.97
30021;BME280;16861;52.294;7.760;2023-02-08T04:52:32;102073.78;;;2.69;56.47
30021;BME280;16861;52.294;7.760;2023-02-08T04:54:58;102078.13;;;2.69;56.84
30021;BME280;16861;52.294;7.760;2023-02-08T04:57:25;102069.41;;;2.67;56.73
30021;BME280;16861;52.294;7.760;2023-02-08T04:59:51;102063.34;;;2.66;57.42
30021;BME280;16861;52.294;7.760;2023-02-08T05:02:18;102072.88;;;2.66;56.70
30021;BME280;16861;52.294;7.760;2023-02-08T05:04:45;102072.84;;;2.64;56.53
30021;BME280;16861;52.294;7.760;2023-02-08T05:07:11;102071.09;;;2.62;57.11
30021;BME280;16861;52.294;7.760;2023-02-08T05:09:38;102071.94;;;2.60;56.49
30021;BME280;16861;52.294;7.760;2023-02-08T05:12:05;102077.13;;;2.59;56.71
30021;BME280;16861;52.294;7.760;2023-02-08T05:14:31;102071.91;;;2.59;57.25
30021;BME280;16861;52.294;7.760;2023-02-08T05:16:58;102070.19;;;2.58;57.25
30021;BME280;16861;52.294;7.760;2023-02-08T05:19:25;102065.81;;;2.57;56.95
30021;BME280;16861;52.294;7.760;2023-02-08T05:21:52;102060.59;;;2.57;56.91
30021;BME280;16861;52.294;7.760;2023-02-08T05:24:18;102056.28;;;2.56;56.94
30021;BME280;16861;52.294;7.760;2023-02-08T05:26:45;102055.38;;;2.55;57.33
30021;BME280;16861;52.294;7.760;2023-02-08T05:29:12;102057.13;;;2.55;57.50
30021;BME280;16861;52.294;7.760;2023-02-08T05:31:38;102059.72;;;2.55;57.42
30021;BME280;16861;52.294;7.760;2023-02-08T05:34:05;102064.00;;;2.53;56.85
30021;BME280;16861;52.294;7.760;2023-02-08T05:36:32;102058.00;;;2.54;57.29
30021;BME280;16861;52.294;7.760;2023-02-08T05:38:58;102057.97;;;2.52;56.94
30021;BME280;16861;52.294;7.760;2023-02-08T05:41:25;102048.41;;;2.51;57.37
30021;BME280;16861;52.294;7.760;2023-02-08T05:43:52;102053.63;;;2.51;57.54
30021;BME280;16861;52.294;7.760;2023-02-08T05:46:18;102052.75;;;2.51;57.70
30021;BME280;16861;52.294;7.760;2023-02-08T05:48:45;102044.06;;;2.52;57.51
30021;BME280;16861;52.294;7.760;2023-02-08T05:51:12;102049.28;;;2.52;57.19
30021;BME280;16861;52.294;7.760;2023-02-08T05:53:38;102051.00;;;2.53;57.41
30021;BME280;16861;52.294;7.760;2023-02-08T05:56:05;102043.22;;;2.51;57.06
30021;BME280;16861;52.294;7.760;2023-02-08T05:58:32;102047.53;;;2.51;57.15
30021;BME280;16861;52.294;7.760;2023-02-08T06:00:59;102046.66;;;2.50;56.90
30021;BME280;16861;52.294;7.760;2023-02-08T06:03:26;102049.22;;;2.48;56.74
30021;BME280;16861;52.294;7.760;2023-02-08T06:05:52;102046.63;;;2.48;56.81
30021;BME280;16861;52.294;7.760;2023-02-08T06:08:19;102036.22;;;2.47;56.84
30021;BME280;16861;52.294;7.760;2023-02-08T06:10:48;102040.53;;;2.46;56.55
30021;BME280;16861;52.294;7.760;2023-02-08T06:13:25;102036.19;;;2.44;56.16
30021;BME280;16861;52.294;7.760;2023-02-08T06:16:08;102027.50;;;2.43;57.20
30021;BME280;16861;52.294;7.760;2023-02-08T06:18:35;102023.16;;;2.42;56.19
30021;BME280;16861;52.294;7.760;2023-02-08T06:21:01;102037.88;;;2.42;56.64
30021;BME280;16861;52.294;7.760;2023-02-08T06:23:28;102035.28;;;2.40;56.12
30021;BME280;16861;52.294;7.760;2023-02-08T06:25:55;102042.16;;;2.38;56.58
30021;BME280;16861;52.294;7.760;2023-02-08T06:28:22;102037.81;;;2.37;55.84
30021;BME280;16861;52.294;7.760;2023-02-08T06:30:49;102038.69;;;2.36;55.86
30021;BME280;16861;52.294;7.760;2023-02-08T06:33:17;102035.19;;;2.36;56.03
30021;BME280;16861;52.294;7.760;2023-02-08T06:35:50;102043.81;;;2.33;55.64
30021;BME280;16861;52.294;7.760;2023-02-08T06:38:17;102042.09;;;2.35;55.61
30021;BME280;16861;52.294;7.760;2023-02-08T06:40:46;102041.22;;;2.33;55.56
30021;BME280;16861;52.294;7.760;2023-02-08T06:43:13;102042.09;;;2.32;55.85
30021;BME280;16861;52.294;7.760;2023-02-08T06:45:39;102039.47;;;2.30;55.79
30021;BME280;16861;52.294;7.760;2023-02-08T06:48:08;102035.97;;;2.30;56.36
30021;BME280;16861;52.294;7.760;2023-02-08T06:50:34;102041.16;;;2.28;55.88
30021;BME280;16861;52.294;7.760;2023-02-08T06:53:03;102040.28;;;2.28;56.26
30021;BME280;16861;52.294;7.760;2023-02-08T06:55:30;102040.28;;;2.28;55.83
30021;BME280;16861;52.294;7.760;2023-02-08T06:57:56;102040.28;;;2.28;56.15
30021;BME280;16861;52.294;7.760;2023-02-08T07:00:23;102042.03;;;2.29;55.86
30021;BME280;16861;52.294;7.760;2023-02-08T07:02:50;102050.69;;;2.28;55.92
30021;BME280;16861;52.294;7.760;2023-02-08T07:05:17;102049.81;;;2.27;55.59
30021;BME280;16861;52.294;7.760;2023-02-08T07:07:44;102048.91;;;2.25;55.52
30021;BME280;16861;52.294;7.760;2023-02-08T07:10:11;102049.72;;;2.22;55.78
30021;BME280;16861;52.294;7.760;2023-02-08T07:12:37;102049.72;;;2.21;55.31
30021;BME280;16861;52.294;7.760;2023-02-08T07:15:04;102051.44;;;2.20;55.47
30021;BME280;16861;52.294;7.760;2023-02-08T07:17:31;102052.28;;;2.19;55.49
30021;BME280;16861;52.294;7.760;2023-02-08T07:19:57;102054.03;;;2.20;56.27
30021;BME280;16861;52.294;7.760;2023-02-08T07:22:24;102048.84;;;2.20;55.60
30021;BME280;16861;52.294;7.760;2023-02-08T07:24:50;102051.47;;;2.22;56.11
30021;BME280;16861;52.294;7.760;2023-02-08T07:27:17;102051.53;;;2.25;56.13
30021;BME280;16861;52.294;7.760;2023-02-08T07:29:44;102048.13;;;2.29;56.13
30021;BME280;16861;52.294;7.760;2023-02-08T07:32:10;102052.47;;;2.33;56.19
30021;BME280;16861;52.294;7.760;2023-02-08T07:34:37;102050.81;;;2.37;56.23
30021;BME280;16861;52.294;7.760;2023-02-08T07:37:06;102052.63;;;2.41;56.05
30021;BME280;16861;52.294;7.760;2023-02-08T07:39:33;102050.94;;;2.46;55.85
30021;BME280;16861;52.294;7.760;2023-02-08T07:42:00;102048.41;;;2.50;56.17
30021;BME280;16861;52.294;7.760;2023-02-08T07:44:26;102051.00;;;2.53;56.10
30021;BME280;16861;52.294;7.760;2023-02-08T07:46:53;102048.47;;;2.56;56.40
30021;BME280;16861;52.294;7.760;2023-02-08T07:49:20;102044.19;;;2.58;56.58
30021;BME280;16861;52.294;7.760;2023-02-08T07:51:47;102043.34;;;2.60;56.00
30021;BME280;16861;52.294;7.760;2023-02-08T07:54:13;102042.47;;;2.62;55.92
30021;BME280;16861;52.294;7.760;2023-02-08T07:56:40;102040.75;;;2.64;55.72
30021;BME280;16861;52.294;7.760;2023-02-08T07:59:07;102040.78;;;2.65;55.92
30021;BME280;16861;52.294;7.760;2023-02-08T08:01:34;102042.56;;;2.66;56.28
30021;BME280;16861;52.294;7.760;2023-02-08T08:04:00;102037.38;;;2.69;56.51
30021;BME280;16861;52.294;7.760;2023-02-08T08:06:27;102036.50;;;2.70;55.82
30021;BME280;16861;52.294;7.760;2023-02-08T08:08:54;102034.81;;;2.72;56.26
30021;BME280;16861;52.294;7.760;2023-02-08T08:11:20;102037.44;;;2.74;56.14
30021;BME280;16861;52.294;7.760;2023-02-08T08:13:48;102039.22;;;2.77;56.07
30021;BME280;16861;52.294;7.760;2023-02-08T08:16:15;102047.88;;;2.79;56.06
30021;BME280;16861;52.294;7.760;2023-02-08T08:18:42;102047.03;;;2.81;56.59
30021;BME280;16861;52.294;7.760;2023-02-08T08:21:09;102044.53;;;2.86;56.55
30021;BME280;16861;52.294;7.760;2023-02-08T08:23:36;102041.94;;;2.88;55.80
30021;BME280;16861;52.294;7.760;2023-02-08T08:28:34;102030.75;;;2.95;56.02
30021;BME280;16861;52.294;7.760;2023-02-08T08:31:01;102018.66;;;2.98;56.27
30021;BME280;16861;52.294;7.760;2023-02-08T08:33:28;102022.16;;;3.04;55.81
30021;BME280;16861;52.294;7.760;2023-02-08T08:35:54;102022.25;;;3.08;55.86
30021;BME280;16861;52.294;7.760;2023-02-08T08:38:21;102021.41;;;3.12;56.09
30021;BME280;16861;52.294;7.760;2023-02-08T08:40:47;102019.72;;;3.18;56.16
30021;BME280;16861;52.294;7.760;2023-02-08T08:45:42;102018.06;;;3.24;55.81
30021;BME280;16861;52.294;7.760;2023-02-08T08:48:08;102012.03;;;3.29;55.67
30021;BME280;16861;52.294;7.760;2023-02-08T08:50:36;102012.06;;;3.33;55.92
30021;BME280;16861;52.294;7.760;2023-02-08T08:53:02;102012.13;;;3.38;55.57
30021;BME280;16861;52.294;7.760;2023-02-08T08:55:29;102019.97;;;3.41;55.67
30021;BME280;16861;52.294;7.760;2023-02-08T08:57:55;102024.34;;;3.45;55.79
30021;BME280;16861;52.294;7.760;2023-02-08T09:00:22;102022.66;;;3.50;55.37
30021;BME280;16861;52.294;7.760;2023-02-08T09:02:48;102029.63;;;3.55;55.39
30021;BME280;16861;52.294;7.760;2023-02-08T09:05:15;102030.53;;;3.58;55.58
30021;BME280;16861;52.294;7.760;2023-02-08T09:07:41;102025.38;;;3.63;55.05
30021;BME280;16861;52.294;7.760;2023-02-08T09:10:08;102021.06;;;3.68;54.80
30021;BME280;16861;52.294;7.760;2023-02-08T09:12:35;102022.84;;;3.72;55.00
30021;BME280;16861;52.294;7.760;2023-02-08T09:15:02;102021.13;;;3.77;54.64
30021;BME280;16861;52.294;7.760;2023-02-08T09:17:29;102022.94;;;3.83;54.63
30021;BME280;16861;52.294;7.760;2023-02-08T09:19:55;102029.03;;;3.88;54.63
30021;BME280;16861;52.294;7.760;2023-02-08T09:22:22;102022.13;;;3.94;54.72
30021;BME280;16861;52.294;7.760;2023-02-08T09:24:48;102023.03;;;3.99;54.67
30021;BME280;16861;52.294;7.760;2023-02-08T09:27:15;102025.69;;;4.05;54.63
30021;BME280;16861;52.294;7.760;2023-02-08T09:29:44;102017.03;;;4.11;54.46
30021;BME280;16861;52.294;7.760;2023-02-08T09:32:10;102024.00;;;4.16;54.56
30021;BME280;16861;52.294;7.760;2023-02-08T09:34:37;102027.53;;;4.20;53.93
30021;BME280;16861;52.294;7.760;2023-02-08T09:37:03;102029.31;;;4.26;54.34
30021;BME280;16861;52.294;7.760;2023-02-08T09:39:31;102025.84;;;4.32;54.30
30021;BME280;16861;52.294;7.760;2023-02-08T09:47:32;102045.91;;;4.47;52.82
30021;BME280;16861;52.294;7.760;2023-02-08T09:57:43;102043.44;;;4.72;54.41
30021;BME280;16861;52.294;7.760;2023-02-08T10:00:22;102046.09;;;4.76;52.13
30021;BME280;16861;52.294;7.760;2023-02-08T10:02:52;102044.38;;;4.85;53.74
30021;BME280;16861;52.294;7.760;2023-02-08T10:05:28;102040.91;;;4.92;53.32
30021;BME280;16861;52.294;7.760;2023-02-08T10:07:55;102040.09;;;5.01;53.92
30021;BME280;16861;52.294;7.760;2023-02-08T10:10:42;102042.69;;;5.05;51.51
30021;BME280;16861;52.294;7.760;2023-02-08T10:13:28;102037.50;;;5.15;51.08
30021;BME280;16861;52.294;7.760;2023-02-08T10:19:13;102041.88;;;5.33;50.91
30021;BME280;16861;52.294;7.760;2023-02-08T10:24:30;102040.19;;;5.52;51.75
30021;BME280;16861;52.294;7.760;2023-02-08T10:27:15;102037.59;;;5.63;51.53
30021;BME280;16861;52.294;7.760;2023-02-08T10:34:57;102033.22;;;5.93;51.83
30021;BME280;16861;52.294;7.760;2023-02-08T10:37:33;102032.38;;;6.05;51.89
30021;BME280;16861;52.294;7.760;2023-02-08T10:42:47;102021.88;;;6.30;51.79
30021;BME280;16861;52.294;7.760;2023-02-08T10:45:28;102020.09;;;6.42;50.94
30021;BME280;16861;52.294;7.760;2023-02-08T10:47:57;102020.03;;;6.57;52.42
30021;BME280;16861;52.294;7.760;2023-02-08T10:50:36;102017.38;;;6.70;52.04
30021;BME280;16861;52.294;7.760;2023-02-08T10:53:04;102019.06;;;6.86;52.77
30021;BME280;16861;52.294;7.760;2023-02-08T10:55:34;102008.53;;;6.99;51.39
30021;BME280;16861;52.294;7.760;2023-02-08T10:58:05;102010.16;;;7.15;52.04
30021;BME280;16861;52.294;7.760;2023-02-08T11:00:34;102000.47;;;7.28;51.49
30021;BME280;16861;52.294;7.760;2023-02-08T11:03:16;102000.38;;;7.41;49.35
30021;BME280;16861;52.294;7.760;2023-02-08T11:05:45;102000.25;;;7.60;51.76
30021;BME280;16861;52.294;7.760;2023-02-08T11:08:21;101994.00;;;7.72;50.73
30021;BME280;16861;52.294;7.760;2023-02-08T11:11:03;101993.91;;;7.86;49.27
30021;BME280;16861;52.294;7.760;2023-02-08T11:13:41;101989.38;;;8.00;49.04
30021;BME280;16861;52.294;7.760;2023-02-08T11:16:11;101995.31;;;8.19;50.77
30021;BME280;16861;52.294;7.760;2023-02-08T11:18:40;101996.84;;;8.39;51.41
30021;BME280;16861;52.294;7.760;2023-02-08T11:21:22;101995.72;;;8.64;49.13
30021;BME280;16861;52.294;7.760;2023-02-08T11:23:53;101995.28;;;8.96;50.64
30021;BME280;16861;52.294;7.760;2023-02-08T11:29:16;101992.22;;;9.80;49.22
30021;BME280;16861;52.294;7.760;2023-02-08T11:32:24;101993.13;;;10.26;48.30
30021;BME280;16861;52.294;7.760;2023-02-08T11:34:50;101983.47;;;10.71;51.29
30021;BME280;16861;52.294;7.760;2023-02-08T11:37:19;101974.94;;;11.00;48.96
30021;BME280;16861;52.294;7.760;2023-02-08T11:39:51;101989.16;;;11.31;48.72
30021;BME280;16861;52.294;7.760;2023-02-08T11:42:39;101982.22;;;11.63;48.87
30021;BME280;16861;52.294;7.760;2023-02-08T11:45:15;101981.97;;;12.07;51.93
30021;BME280;16861;52.294;7.760;2023-02-08T11:47:46;101973.34;;;12.64;51.68
30021;BME280;16861;52.294;7.760;2023-02-08T11:52:55;101977.59;;;14.05;49.85
30021;BME280;16861;52.294;7.760;2023-02-08T11:55:25;101979.94;;;14.86;51.49
30021;BME280;16861;52.294;7.760;2023-02-08T11:57:56;101969.53;;;15.68;48.67
30021;BME280;16861;52.294;7.760;2023-02-08T12:00:26;101960.63;;;16.50;48.68
30021;BME280;16861;52.294;7.760;2023-02-08T12:02:59;101960.44;;;17.29;44.29
30021;BME280;16861;52.294;7.760;2023-02-08T12:05:41;101946.69;;;18.07;43.02
30021;BME280;16861;52.294;7.760;2023-02-08T12:08:24;101945.28;;;18.82;41.88
30021;BME280;16861;52.294;7.760;2023-02-08T12:19:36;101941.34;;;21.22;38.40
30021;BME280;16861;52.294;7.760;2023-02-08T12:22:13;101942.41;;;21.73;36.62
30021;BME280;16861;52.294;7.760;2023-02-08T12:27:58;101927.50;;;22.46;34.48
30021;BME280;16861;52.294;7.760;2023-02-08T12:30:31;101918.50;;;22.71;36.42
30021;BME280;16861;52.294;7.760;2023-02-08T12:55:04;101873.63;;;24.91;32.67
30021;BME280;16861;52.294;7.760;2023-02-08T12:57:31;101867.97;;;24.94;36.46
30021;BME280;16861;52.294;7.760;2023-02-08T13:00:03;101868.69;;;24.96;32.27
30021;BME280;16861;52.294;7.760;2023-02-08T13:02:42;101860.31;;;24.78;32.75
30021;BME280;16861;52.294;7.760;2023-02-08T13:05:18;101849.34;;;24.37;28.67
30021;BME280;16861;52.294;7.760;2023-02-08T13:07:48;101850.72;;;23.97;29.38
30021;BME280;16861;52.294;7.760;2023-02-08T13:10:28;101846.22;;;23.40;26.06
30021;BME280;16861;52.294;7.760;2023-02-08T13:13:16;101846.03;;;22.71;28.19
30021;BME280;16861;52.294;7.760;2023-02-08T13:15:45;101837.56;;;22.16;28.78
30021;BME280;16861;52.294;7.760;2023-02-08T13:18:28;101831.44;;;21.37;27.45
30021;BME280;16861;52.294;7.760;2023-02-08T13:20:59;101830.81;;;20.80;26.77
30021;BME280;16861;52.294;7.760;2023-02-08T13:23:35;101829.44;;;20.19;27.10
30021;BME280;16861;52.294;7.760;2023-02-08T13:26:23;101835.59;;;19.63;27.51
30021;BME280;16861;52.294;7.760;2023-02-08T13:28:55;101824.00;;;19.19;28.27
30021;BME280;16861;52.294;7.760;2023-02-08T13:31:28;101827.66;;;18.71;27.59
30021;BME280;16861;52.294;7.760;2023-02-08T13:33:59;101824.88;;;18.26;27.54
30021;BME280;16861;52.294;7.760;2023-02-08T13:36:35;101820.13;;;17.82;27.93
30021;BME280;16861;52.294;7.760;2023-02-08T13:39:05;101814.44;;;17.39;27.06
30021;BME280;16861;52.294;7.760;2023-02-08T13:41:33;101815.41;;;17.02;28.87
30021;BME280;16861;52.294;7.760;2023-02-08T13:44:05;101810.50;;;16.75;29.53
30021;BME280;16861;52.294;7.760;2023-02-08T13:46:47;101810.97;;;16.48;28.75
30021;BME280;16861;52.294;7.760;2023-02-08T13:52:11;101806.69;;;16.26;29.56
30021;BME280;16861;52.294;7.760;2023-02-08T13:57:55;101797.00;;;16.25;31.03
30021;BME280;16861;52.294;7.760;2023-02-08T14:05:58;101772.88;;;16.30;31.80
30021;BME280;16861;52.294;7.760;2023-02-08T14:14:12;101754.59;;;16.77;33.63
30021;BME280;16861;52.294;7.760;2023-02-08T14:16:46;101748.97;;;17.01;32.63
30021;BME280;16861;52.294;7.760;2023-02-08T14:19:39;101747.59;;;17.27;31.38
30021;BME280;16861;52.294;7.760;2023-02-08T14:24:43;101738.91;;;17.90;32.31
30021;BME280;16861;52.294;7.760;2023-02-08T14:32:27;101729.13;;;19.42;33.63
30021;BME280;16861;52.294;7.760;2023-02-08T14:35:05;101734.28;;;20.02;32.23
30021;BME280;16861;52.294;7.760;2023-02-08T14:37:34;101728.34;;;20.65;33.50
30021;BME280;16861;52.294;7.760;2023-02-08T14:50:38;101712.94;;;23.03;30.30
30021;BME280;16861;52.294;7.760;2023-02-08T14:55:57;101707.78;;;23.68;30.00
30021;BME280;16861;52.294;7.760;2023-02-08T14:58:28;101710.63;;;24.00;28.20
30021;BME280;16861;52.294;7.760;2023-02-08T15:00:56;101707.50;;;24.16;28.22
30021;BME280;16861;52.294;7.760;2023-02-08T15:03:26;101711.19;;;24.15;27.38
30021;BME280;16861;52.294;7.760;2023-02-08T15:09:00;101711.59;;;23.99;27.58
30021;BME280;16861;52.294;7.760;2023-02-08T15:11:30;101714.44;;;23.86;25.18
30021;BME280;16861;52.294;7.760;2023-02-08T15:13:59;101706.31;;;23.64;25.86
30021;BME280;16861;52.294;7.760;2023-02-08T15:16:42;101704.41;;;23.21;24.43
30021;BME280;16861;52.294;7.760;2023-02-08T15:19:37;101709.09;;;22.60;24.77
30021;BME280;16861;52.294;7.760;2023-02-08T15:22:16;101698.69;;;21.70;24.84
30021;BME280;16861;52.294;7.760;2023-02-08T15:24:51;101691.34;;;20.85;24.76
30021;BME280;16861;52.294;7.760;2023-02-08T15:27:23;101700.59;;;19.99;25.88
30021;BME280;16861;52.294;7.760;2023-02-08T15:29:50;101695.78;;;19.06;26.61
30021;BME280;16861;52.294;7.760;2023-02-08T15:32:22;101705.75;;;18.12;26.76
30021;BME280;16861;52.294;7.760;2023-02-08T15:37:19;101694.47;;;16.57;29.04
30021;BME280;16861;52.294;7.760;2023-02-08T15:39:50;101702.03;;;15.73;28.89
30021;BME280;16861;52.294;7.760;2023-02-08T15:42:24;101695.41;;;15.05;29.89
30021;BME280;16861;52.294;7.760;2023-02-08T15:44:51;101698.00;;;14.44;30.84
30021;BME280;16861;52.294;7.760;2023-02-08T15:47:27;101693.41;;;13.82;30.48
30021;BME280;16861;52.294;7.760;2023-02-08T15:49:55;101685.38;;;13.37;31.89
30021;BME280;16861;52.294;7.760;2023-02-08T15:52:26;101687.88;;;12.93;32.18
30021;BME280;16861;52.294;7.760;2023-02-08T15:54:53;101682.09;;;12.56;33.07
30021;BME280;16861;52.294;7.760;2023-02-08T16:00:25;101680.97;;;11.80;33.09
30021;BME280;16861;52.294;7.760;2023-02-08T16:03:01;101680.75;;;11.58;33.94
30021;BME280;16861;52.294;7.760;2023-02-08T16:05:31;101673.50;;;11.36;34.76
30021;BME280;16861;52.294;7.760;2023-02-08T16:07:59;101673.06;;;11.20;35.02
30021;BME280;16861;52.294;7.760;2023-02-08T16:10:41;101665.78;;;10.98;34.77
30021;BME280;16861;52.294;7.760;2023-02-08T16:13:22;101664.13;;;10.94;35.38
30021;BME280;16861;52.294;7.760;2023-02-08T16:15:53;101659.00;;;10.89;35.68
30021;BME280;16861;52.294;7.760;2023-02-08T16:18:44;101660.16;;;10.79;35.88
30021;BME280;16861;52.294;7.760;2023-02-08T16:23:50;101658.72;;;10.67;36.28
30021;BME280;16861;52.294;7.760;2023-02-08T16:26:21;101654.50;;;10.60;36.55
30021;BME280;16861;52.294;7.760;2023-02-08T16:29:00;101648.69;;;10.48;36.46
30021;BME280;16861;52.294;7.760;2023-02-08T16:31:29;101650.56;;;10.41;36.86
30021;BME280;16861;52.294;7.760;2023-02-08T16:34:03;101646.53;;;10.28;36.77
30021;BME280;16861;52.294;7.760;2023-02-08T16:36:33;101639.75;;;10.17;37.04
30021;BME280;16861;52.294;7.760;2023-02-08T16:39:38;101635.88;;;9.98;37.26
30021;BME280;16861;52.294;7.760;2023-02-08T16:42:19;101634.47;;;9.83;37.31
30021;BME280;16861;52.294;7.760;2023-02-08T16:47:43;101624.56;;;9.55;38.01
30021;BME280;16861;52.294;7.760;2023-02-08T16:50:15;101631.94;;;9.38;38.19
30021;BME280;16861;52.294;7.760;2023-02-08T16:52:42;101629.56;;;9.26;38.33
30021;BME280;16861;52.294;7.760;2023-02-08T16:55:20;101625.56;;;9.08;38.31
30021;BME280;16861;52.294;7.760;2023-02-08T16:57:51;101624.88;;;8.99;39.30
30021;BME280;16861;52.294;7.760;2023-02-08T17:00:21;101620.69;;;8.88;39.29
30021;BME280;16861;52.294;7.760;2023-02-08T17:02:49;101625.22;;;8.79;39.81
30021;BME280;16861;52.294;7.760;2023-02-08T17:05:17;101623.66;;;8.70;39.78
30021;BME280;16861;52.294;7.760;2023-02-08T17:07:44;101620.31;;;8.62;39.98
30021;BME280;16861;52.294;7.760;2023-02-08T17:10:30;101620.50;;;8.50;39.41
30021;BME280;16861;52.294;7.760;2023-02-08T17:12:57;101616.19;;;8.45;39.80
30021;BME280;16861;52.294;7.760;2023-02-08T17:15:46;101609.41;;;8.33;39.80
30021;BME280;16861;52.294;7.760;2023-02-08T17:18:13;101604.38;;;8.23;40.14
30021;BME280;16861;52.294;7.760;2023-02-08T17:20:39;101595.78;;;8.11;40.28
30021;BME280;16861;52.294;7.760;2023-02-08T17:23:06;101596.84;;;8.01;40.55
30021;BME280;16861;52.294;7.760;2023-02-08T17:25:33;101591.75;;;7.91;40.63
30021;BME280;16861;52.294;7.760;2023-02-08T17:28:06;101585.81;;;7.80;40.68
30021;BME280;16861;52.294;7.760;2023-02-08T17:30:37;101585.03;;;7.73;40.69
30021;BME280;16861;52.294;7.760;2023-02-08T17:33:04;101586.91;;;7.66;40.84
30021;BME280;16861;52.294;7.760;2023-02-08T17:35:32;101575.66;;;7.60;41.02
30021;BME280;16861;52.294;7.760;2023-02-08T17:37:59;101578.31;;;7.55;41.30
30021;BME280;16861;52.294;7.760;2023-02-08T17:40:30;101582.78;;;7.50;41.36
30021;BME280;16861;52.294;7.760;2023-02-08T17:43:02;101583.69;;;7.47;41.14
30021;BME280;16861;52.294;7.760;2023-02-08T17:45:30;101575.00;;;7.45;41.60
30021;BME280;16861;52.294;7.760;2023-02-08T17:47:59;101579.47;;;7.38;41.53
30021;BME280;16861;52.294;7.760;2023-02-08T17:50:26;101574.25;;;7.35;41.45
30021;BME280;16861;52.294;7.760;2023-02-08T17:52:53;101573.44;;;7.32;41.57
30021;BME280;16861;52.294;7.760;2023-02-08T17:55:21;101573.47;;;7.28;41.75
30021;BME280;16861;52.294;7.760;2023-02-08T17:57:47;101569.16;;;7.26;41.82
30021;BME280;16861;52.294;7.760;2023-02-08T18:00:17;101574.41;;;7.23;42.03
30021;BME280;16861;52.294;7.760;2023-02-08T18:02:46;101568.31;;;7.22;42.15
30021;BME280;16861;52.294;7.760;2023-02-08T18:05:15;101567.44;;;7.22;42.11
30021;BME280;16861;52.294;7.760;2023-02-08T18:07:42;101567.44;;;7.22;42.57
30021;BME280;16861;52.294;7.760;2023-02-08T18:10:10;101563.13;;;7.19;42.38
30021;BME280;16861;52.294;7.760;2023-02-08T18:12:38;101557.00;;;7.19;42.31
30021;BME280;16861;52.294;7.760;2023-02-08T18:15:06;101557.91;;;7.16;42.00
30021;BME280;16861;52.294;7.760;2023-02-08T18:17:33;101554.47;;;7.14;42.24
30021;BME280;16861;52.294;7.760;2023-02-08T18:19:59;101545.75;;;7.12;42.12
30021;BME280;16861;52.294;7.760;2023-02-08T18:22:26;101540.53;;;7.09;42.49
30021;BME280;16861;52.294;7.760;2023-02-08T18:24:53;101536.22;;;7.08;42.44
30021;BME280;16861;52.294;7.760;2023-02-08T18:27:21;101531.06;;;7.03;42.76
30021;BME280;16861;52.294;7.760;2023-02-08T18:29:48;101529.28;;;7.02;42.63
30021;BME280;16861;52.294;7.760;2023-02-08T18:32:14;101525.84;;;7.00;42.79
30021;BME280;16861;52.294;7.760;2023-02-08T18:34:41;101517.13;;;6.98;42.80
30021;BME280;16861;52.294;7.760;2023-02-08T18:37:08;101523.28;;;6.95;42.65
30021;BME280;16861;52.294;7.760;2023-02-08T18:39:35;101525.97;;;6.92;42.40
30021;BME280;16861;52.294;7.760;2023-02-08T18:42:01;101527.72;;;6.90;42.25
30021;BME280;16861;52.294;7.760;2023-02-08T18:44:28;101527.72;;;6.88;42.74
30021;BME280;16861;52.294;7.760;2023-02-08T18:46:55;101521.69;;;6.85;42.45
30021;BME280;16861;52.294;7.760;2023-02-08T18:49:21;101518.19;;;6.84;42.57
30021;BME280;16861;52.294;7.760;2023-02-08T18:51:49;101515.63;;;6.81;42.72
30021;BME280;16861;52.294;7.760;2023-02-08T18:54:16;101521.72;;;6.78;42.68
30021;BME280;16861;52.294;7.760;2023-02-08T18:56:43;101520.91;;;6.76;42.41